createdAt,value
2022-09-06T00:00:02.767Z,18.18
2022-09-06T00:01:10.946Z,18.30
2022-09-06T00:02:12.657Z,18.32
2022-09-06T00:03:14.592Z,18.33
2022-09-06T00:04:16.438Z,18.32
2022-09-06T00:05:18.466Z,18.26
2022-09-06T00:06:20.896Z,18.33
2022-09-06T00:07:22.618Z,18.27
2022-09-06T00:08:24.353Z,18.23
2022-09-06T00:09:26.317Z,18.28
2022-09-06T00:10:29.268Z,18.29
2022-09-06T00:11:31.189Z,18.27
2022-09-06T00:12:33.367Z,18.26
2022-09-06T00:13:35.719Z,18.23
2022-09-06T00:14:37.608Z,18.23
2022-09-06T00:15:40.039Z,18.23
2022-09-06T00:16:41.941Z,18.16
2022-09-06T00:17:45.474Z,18.19
2022-09-06T00:18:47.411Z,18.19
2022-09-06T00:19:49.129Z,18.19
2022-09-06T00:20:50.858Z,18.19
2022-09-06T00:21:52.609Z,18.14
2022-09-06T00:23:02.836Z,18.20
2022-09-06T00:24:04.678Z,18.12
2022-09-06T00:25:07.643Z,18.21
2022-09-06T00:26:09.416Z,18.15
2022-09-06T00:27:11.158Z,18.19
2022-09-06T00:28:12.942Z,18.19
2022-09-06T00:29:14.666Z,18.12
2022-09-06T00:30:16.522Z,18.18
2022-09-06T00:31:21.300Z,18.10
2022-09-06T00:32:23.410Z,18.13
2022-09-06T00:33:25.330Z,18.13
2022-09-06T00:34:27.701Z,18.13
2022-09-06T00:35:29.767Z,18.11
2022-09-06T00:36:31.795Z,18.08
2022-09-06T00:37:33.499Z,18.07
2022-09-06T00:38:35.712Z,18.05
2022-09-06T00:39:37.430Z,18.05
2022-09-06T00:40:39.503Z,18.06
2022-09-06T00:41:41.240Z,18.06
2022-09-06T00:42:43.046Z,18.06
2022-09-06T00:43:45.067Z,18.05
2022-09-06T00:44:47.797Z,18.05
2022-09-06T00:45:49.820Z,18.03
2022-09-06T00:46:54.427Z,17.99
2022-09-06T00:47:58.501Z,17.86
2022-09-06T00:49:05.880Z,17.91
2022-09-06T00:50:08.872Z,17.83
2022-09-06T00:51:12.639Z,17.94
2022-09-06T00:52:16.968Z,17.93
2022-09-06T00:53:19.721Z,17.87
2022-09-06T00:54:21.943Z,17.89
2022-09-06T00:55:26.336Z,17.89
2022-09-06T00:56:28.734Z,17.88
2022-09-06T00:57:32.303Z,17.87
2022-09-06T00:58:34.557Z,17.88
2022-09-06T00:59:39.333Z,17.90
2022-09-06T01:00:41.230Z,17.80
2022-09-06T01:01:43.318Z,17.89
2022-09-06T01:02:45.427Z,17.90
2022-09-06T01:03:47.446Z,17.89
2022-09-06T01:04:49.878Z,17.88
2022-09-06T01:06:18.452Z,17.89
2022-09-06T01:07:23.364Z,17.87
2022-09-06T01:08:38.649Z,17.73
2022-09-06T01:10:19.100Z,17.82
2022-09-06T01:11:45.855Z,17.83
2022-09-06T01:13:25.547Z,17.84
2022-09-06T01:15:01.864Z,17.73
2022-09-06T01:16:22.069Z,17.78
2022-09-06T01:17:33.101Z,17.78
2022-09-06T01:18:46.763Z,17.75
2022-09-06T01:20:33.771Z,17.73
2022-09-06T01:21:52.547Z,17.72
2022-09-06T01:23:09.523Z,17.71
2022-09-06T01:25:02.201Z,17.71
2022-09-06T01:26:25.606Z,17.68
2022-09-06T01:27:44.582Z,17.69
2022-09-06T01:28:47.530Z,17.61
2022-09-06T01:30:02.228Z,17.67
2022-09-06T01:31:25.670Z,17.65
2022-09-06T01:32:50.522Z,17.46
2022-09-06T01:34:17.264Z,17.63
2022-09-06T01:35:33.997Z,17.60
2022-09-06T01:37:08.921Z,17.55
2022-09-06T01:38:11.592Z,17.59
2022-09-06T01:39:23.184Z,17.56
2022-09-06T01:40:25.033Z,17.59
2022-09-06T01:41:27.587Z,17.57
2022-09-06T01:42:33.258Z,17.47
2022-09-06T01:43:40.339Z,17.48
2022-09-06T01:44:51.972Z,17.55
2022-09-06T01:46:02.693Z,17.55
2022-09-06T01:47:16.428Z,17.55
2022-09-06T01:48:36.646Z,17.55
2022-09-06T01:50:02.964Z,17.55
2022-09-06T01:51:32.373Z,17.48
2022-09-06T01:52:42.928Z,17.56
2022-09-06T01:54:18.011Z,17.55
2022-09-06T01:55:38.184Z,17.56
2022-09-06T01:57:22.800Z,17.53
2022-09-06T01:58:58.643Z,17.48
2022-09-06T02:00:09.429Z,17.46
2022-09-06T02:01:19.440Z,17.47
2022-09-06T02:02:38.745Z,17.47
2022-09-06T02:03:52.758Z,17.41
2022-09-06T02:05:04.909Z,17.49
2022-09-06T02:06:22.477Z,17.50
2022-09-06T02:07:27.854Z,17.51
2022-09-06T02:08:47.380Z,17.44
2022-09-06T02:09:55.333Z,17.50
2022-09-06T02:11:07.334Z,17.50
2022-09-06T02:12:13.396Z,17.52
2022-09-06T02:13:18.371Z,17.52
2022-09-06T02:14:28.881Z,17.52
2022-09-06T02:15:35.120Z,17.54
2022-09-06T02:16:41.063Z,17.51
2022-09-06T02:17:53.713Z,17.56
2022-09-06T02:19:09.609Z,17.55
2022-09-06T02:20:24.917Z,17.52
2022-09-06T02:21:33.023Z,17.55
2022-09-06T02:22:40.307Z,17.54
2022-09-06T02:23:44.413Z,17.41
2022-09-06T02:24:50.291Z,17.53
2022-09-06T02:26:00.543Z,17.50
2022-09-06T02:27:02.271Z,17.46
2022-09-06T02:28:05.684Z,17.46
2022-09-06T02:29:08.065Z,17.42
2022-09-06T02:30:10.841Z,17.41
2022-09-06T02:31:24.208Z,17.32
2022-09-06T02:32:29.245Z,17.40
2022-09-06T02:33:33.399Z,17.38
2022-09-06T02:34:40.165Z,17.28
2022-09-06T02:35:45.115Z,17.35
2022-09-06T02:36:47.771Z,17.32
2022-09-06T02:37:50.127Z,17.21
2022-09-06T02:38:52.056Z,17.21
2022-09-06T02:39:56.156Z,17.13
2022-09-06T02:40:58.696Z,17.17
2022-09-06T02:42:01.767Z,17.14
2022-09-06T02:43:03.569Z,17.18
2022-09-06T02:44:05.369Z,17.23
2022-09-06T02:45:07.903Z,17.23
2022-09-06T02:46:10.003Z,17.23
2022-09-06T02:47:11.914Z,17.24
2022-09-06T02:48:14.638Z,17.25
2022-09-06T02:49:16.379Z,17.24
2022-09-06T02:50:18.267Z,17.18
2022-09-06T02:51:20.790Z,17.24
2022-09-06T02:52:22.537Z,17.18
2022-09-06T02:53:24.248Z,17.18
2022-09-06T02:54:26.178Z,17.16
2022-09-06T02:55:27.893Z,17.13
2022-09-06T02:56:29.633Z,17.10
2022-09-06T02:57:31.350Z,17.10
2022-09-06T02:58:33.065Z,17.11
2022-09-06T02:59:34.860Z,17.04
2022-09-06T03:00:37.628Z,17.05
2022-09-06T03:01:39.412Z,17.02
2022-09-06T03:02:41.190Z,17.05
2022-09-06T03:03:43.020Z,17.05
2022-09-06T03:04:44.967Z,17.05
2022-09-06T03:05:49.856Z,17.06
2022-09-06T03:06:51.607Z,16.99
2022-09-06T03:07:54.586Z,17.06
2022-09-06T03:08:56.399Z,16.98
2022-09-06T03:09:58.450Z,17.05
2022-09-06T03:11:01.031Z,17.05
2022-09-06T03:12:02.957Z,17.04
2022-09-06T03:13:04.678Z,17.02
2022-09-06T03:14:06.405Z,17.06
2022-09-06T03:15:08.633Z,17.07
2022-09-06T03:16:10.667Z,17.06
2022-09-06T03:17:12.455Z,17.05
2022-09-06T03:18:14.937Z,17.06
2022-09-06T03:19:18.058Z,17.04
2022-09-06T03:20:22.788Z,17.00
2022-09-06T03:21:24.731Z,17.07
2022-09-06T03:22:26.475Z,17.08
2022-09-06T03:23:29.812Z,17.08
2022-09-06T03:24:31.510Z,17.08
2022-09-06T03:25:33.441Z,17.08
2022-09-06T03:26:35.574Z,17.08
2022-09-06T03:27:38.284Z,17.06
2022-09-06T03:28:40.340Z,17.08
2022-09-06T03:29:42.070Z,17.09
2022-09-06T03:30:48.426Z,17.08
2022-09-06T03:31:50.281Z,17.01
2022-09-06T03:32:51.985Z,17.06
2022-09-06T03:33:53.702Z,16.99
2022-09-06T03:34:55.410Z,16.99
2022-09-06T03:36:00.560Z,16.97
2022-09-06T03:37:02.302Z,16.97
2022-09-06T03:38:04.040Z,16.98
2022-09-06T03:39:06.806Z,16.98
2022-09-06T03:40:09.411Z,16.96
2022-09-06T03:41:11.194Z,17.00
2022-09-06T03:42:12.937Z,17.00
2022-09-06T03:43:15.752Z,17.00
2022-09-06T03:44:17.458Z,17.00
2022-09-06T03:45:19.196Z,16.99
2022-09-06T03:46:21.011Z,16.96
2022-09-06T03:47:22.834Z,16.93
2022-09-06T03:48:26.841Z,16.80
2022-09-06T03:49:28.639Z,16.63
2022-09-06T03:50:30.380Z,16.54
2022-09-06T03:51:32.375Z,16.22
2022-09-06T03:52:34.173Z,16.13
2022-09-06T03:53:35.941Z,16.16
2022-09-06T03:54:37.754Z,16.13
2022-09-06T03:55:39.893Z,16.10
2022-09-06T03:56:41.632Z,16.20
2022-09-06T03:57:43.401Z,16.15
2022-09-06T03:58:45.331Z,16.28
2022-09-06T03:59:47.105Z,16.35
2022-09-06T04:00:48.982Z,16.39
2022-09-06T04:01:50.758Z,16.42
2022-09-06T04:02:52.480Z,16.39
2022-09-06T04:03:54.218Z,16.44
2022-09-06T04:04:56.003Z,16.38
2022-09-06T04:05:57.982Z,16.52
2022-09-06T04:06:59.743Z,16.53
2022-09-06T04:08:02.492Z,16.55
2022-09-06T04:09:04.763Z,16.52
2022-09-06T04:10:07.134Z,16.51
2022-09-06T04:11:08.927Z,16.55
2022-09-06T04:12:10.656Z,16.50
2022-09-06T04:13:12.378Z,16.58
2022-09-06T04:14:14.342Z,16.61
2022-09-06T04:15:16.211Z,16.66
2022-09-06T04:16:18.840Z,16.70
2022-09-06T04:17:20.687Z,16.77
2022-09-06T04:18:22.893Z,16.59
2022-09-06T04:19:24.667Z,16.94
2022-09-06T04:20:26.585Z,16.99
2022-09-06T04:21:28.394Z,17.09
2022-09-06T04:22:30.600Z,17.12
2022-09-06T04:23:34.338Z,17.15
2022-09-06T04:24:39.462Z,17.31
2022-09-06T04:25:41.240Z,17.27
2022-09-06T04:26:42.976Z,17.39
2022-09-06T04:27:44.685Z,17.47
2022-09-06T04:28:46.573Z,17.58
2022-09-06T04:29:48.360Z,17.60
2022-09-06T04:31:04.713Z,17.82
2022-09-06T04:32:07.121Z,17.97
2022-09-06T04:33:08.947Z,18.06
2022-09-06T04:34:10.906Z,18.25
2022-09-06T04:35:12.623Z,18.39
2022-09-06T04:36:14.343Z,18.51
2022-09-06T04:37:20.137Z,18.68
2022-09-06T04:38:22.126Z,18.83
2022-09-06T04:39:24.375Z,18.94
2022-09-06T04:40:26.161Z,19.08
2022-09-06T04:41:27.939Z,18.94
2022-09-06T04:42:29.959Z,19.32
2022-09-06T04:43:32.274Z,19.48
2022-09-06T04:44:33.993Z,19.61
2022-09-06T04:45:35.776Z,19.90
2022-09-06T04:46:37.604Z,20.10
2022-09-06T04:47:39.324Z,20.26
2022-09-06T04:48:41.159Z,20.43
2022-09-06T04:49:43.229Z,20.55
2022-09-06T04:50:45.144Z,20.71
2022-09-06T04:51:46.900Z,20.88
2022-09-06T04:52:48.788Z,21.05
2022-09-06T04:53:51.156Z,21.25
2022-09-06T04:54:52.879Z,21.40
2022-09-06T04:55:57.784Z,21.66
2022-09-06T04:56:59.517Z,21.85
2022-09-06T04:58:01.826Z,22.07
2022-09-06T04:59:03.615Z,22.15
2022-09-06T05:00:06.288Z,22.45
2022-09-06T05:01:08.066Z,22.68
2022-09-06T05:02:09.878Z,22.87
2022-09-06T05:03:11.625Z,22.97
2022-09-06T05:04:13.350Z,23.16
2022-09-06T05:05:15.255Z,23.35
2022-09-06T05:06:23.204Z,23.53
2022-09-06T05:07:24.972Z,23.61
2022-09-06T05:08:26.930Z,23.90
2022-09-06T05:09:28.812Z,23.97
2022-09-06T05:10:31.092Z,24.24
2022-09-06T05:11:32.876Z,24.43
2022-09-06T05:12:35.086Z,24.57
2022-09-06T05:13:36.981Z,24.63
2022-09-06T05:14:38.688Z,24.90
2022-09-06T05:15:40.467Z,25.03
2022-09-06T05:16:42.343Z,25.04
2022-09-06T05:17:44.331Z,25.21
2022-09-06T05:18:46.169Z,25.46
2022-09-06T05:19:48.542Z,25.58
2022-09-06T05:20:53.933Z,25.78
2022-09-06T05:21:55.639Z,25.92
2022-09-06T05:22:57.429Z,26.07
2022-09-06T05:23:59.211Z,26.13
2022-09-06T05:25:01.173Z,26.31
2022-09-06T05:26:03.801Z,26.43
2022-09-06T05:27:05.666Z,26.52
2022-09-06T05:28:07.509Z,26.62
2022-09-06T05:29:09.276Z,26.79
2022-09-06T05:30:11.535Z,26.86
2022-09-06T05:31:33.719Z,26.94
2022-09-06T05:32:35.493Z,27.03
2022-09-06T05:33:37.807Z,27.13
2022-09-06T05:34:39.527Z,27.23
2022-09-06T05:35:41.271Z,27.34
2022-09-06T05:36:43.054Z,27.45
2022-09-06T05:37:44.874Z,27.59
2022-09-06T05:38:46.630Z,27.69
2022-09-06T05:39:48.430Z,27.73
2022-09-06T05:40:50.583Z,27.84
2022-09-06T05:41:52.357Z,27.90
2022-09-06T05:42:54.180Z,27.91
2022-09-06T05:43:55.928Z,28.04
2022-09-06T05:44:57.834Z,28.06
2022-09-06T05:45:59.636Z,28.16
2022-09-06T05:47:01.671Z,28.24
2022-09-06T05:48:03.705Z,28.35
2022-09-06T05:49:08.061Z,28.50
2022-09-06T05:50:10.490Z,28.57
2022-09-06T05:51:13.561Z,28.56
2022-09-06T05:52:15.336Z,28.76
2022-09-06T05:53:17.053Z,28.81
2022-09-06T05:54:18.944Z,28.83
2022-09-06T05:55:20.673Z,28.85
2022-09-06T05:56:22.740Z,28.89
2022-09-06T05:57:24.631Z,28.85
2022-09-06T05:58:26.463Z,28.73
2022-09-06T05:59:28.314Z,28.79
2022-09-06T06:00:30.095Z,28.93
2022-09-06T06:01:31.935Z,29.01
2022-09-06T06:02:33.780Z,28.99
2022-09-06T06:03:35.598Z,29.09
2022-09-06T06:04:37.655Z,29.07
2022-09-06T06:05:39.411Z,28.98
2022-09-06T06:06:41.138Z,29.05
2022-09-06T06:07:43.048Z,29.10
2022-09-06T06:08:44.932Z,29.12
2022-09-06T06:09:46.683Z,29.11
2022-09-06T06:10:48.396Z,29.20
2022-09-06T06:11:50.095Z,29.25
2022-09-06T06:12:51.792Z,29.40
2022-09-06T06:13:55.051Z,29.50
2022-09-06T06:14:57.023Z,29.56
2022-09-06T06:15:58.766Z,29.52
2022-09-06T06:17:00.617Z,29.45
2022-09-06T06:18:02.394Z,29.64
2022-09-06T06:19:04.103Z,29.84
2022-09-06T06:20:06.351Z,29.81
2022-09-06T06:21:10.960Z,30.02
2022-09-06T06:22:12.737Z,30.16
2022-09-06T06:23:15.762Z,30.25
2022-09-06T06:24:17.486Z,30.27
2022-09-06T06:25:23.205Z,30.40
2022-09-06T06:26:26.629Z,30.56
2022-09-06T06:27:28.425Z,30.69
2022-09-06T06:28:30.199Z,30.75
2022-09-06T06:29:31.921Z,30.87
2022-09-06T06:30:33.680Z,30.93
2022-09-06T06:31:37.198Z,30.95
2022-09-06T06:32:38.971Z,30.97
2022-09-06T06:33:41.157Z,31.07
2022-09-06T06:34:42.923Z,31.20
2022-09-06T06:36:02.656Z,31.39
2022-09-06T06:37:04.453Z,31.41
2022-09-06T06:38:06.169Z,31.59
2022-09-06T06:39:08.794Z,31.69
2022-09-06T06:40:10.796Z,31.57
2022-09-06T06:41:15.417Z,31.68
2022-09-06T06:42:17.189Z,31.83
2022-09-06T06:43:18.934Z,31.85
2022-09-06T06:44:20.671Z,32.00
2022-09-06T06:45:22.435Z,32.14
2022-09-06T06:46:26.953Z,32.16
2022-09-06T06:47:28.670Z,32.25
2022-09-06T06:48:30.670Z,32.28
2022-09-06T06:49:32.780Z,32.35
2022-09-06T06:50:34.490Z,32.40
2022-09-06T06:51:39.640Z,32.49
2022-09-06T06:52:41.389Z,32.64
2022-09-06T06:53:47.723Z,32.60
2022-09-06T06:54:50.227Z,32.70
2022-09-06T06:55:52.013Z,32.67
2022-09-06T06:56:54.056Z,32.67
2022-09-06T06:57:56.021Z,32.85
2022-09-06T06:59:00.220Z,32.87
2022-09-06T07:00:04.570Z,32.88
2022-09-06T07:01:06.983Z,32.92
2022-09-06T07:02:08.882Z,33.06
2022-09-06T07:03:12.111Z,33.24
2022-09-06T07:04:14.388Z,33.47
2022-09-06T07:08:14.978Z,33.82
2022-09-06T07:09:18.662Z,33.97
2022-09-06T07:10:35.788Z,34.13
2022-09-06T07:11:38.490Z,34.23
2022-09-06T07:12:40.302Z,34.18
2022-09-06T07:13:42.355Z,34.07
2022-09-06T07:14:44.051Z,34.13
2022-09-06T07:15:45.760Z,33.83
2022-09-06T07:16:47.709Z,33.76
2022-09-06T07:17:49.577Z,33.76
2022-09-06T07:18:52.831Z,33.83
2022-09-06T07:22:41.040Z,34.15
2022-09-06T07:25:06.807Z,34.19
2022-09-06T07:26:13.612Z,34.41
2022-09-06T07:28:37.257Z,33.62
2022-09-06T07:29:38.979Z,33.26
2022-09-06T07:30:42.162Z,33.52
2022-09-06T07:33:05.657Z,33.95
2022-09-06T07:34:07.384Z,34.22
2022-09-06T07:35:09.462Z,34.39
2022-09-06T07:36:11.653Z,34.24
2022-09-06T07:37:13.439Z,34.28
2022-09-06T07:38:15.201Z,34.21
2022-09-06T07:39:16.913Z,34.31
2022-09-06T07:40:18.751Z,34.15
2022-09-06T07:41:21.138Z,34.22
2022-09-06T07:42:22.905Z,33.73
2022-09-06T07:43:25.566Z,33.57
2022-09-06T07:44:28.939Z,33.75
2022-09-06T07:45:30.727Z,33.73
2022-09-06T07:46:32.522Z,33.60
2022-09-06T07:48:56.025Z,33.60
2022-09-06T07:51:21.624Z,33.47
2022-09-06T07:53:57.907Z,33.77
2022-09-06T07:55:04.615Z,34.17
2022-09-06T07:56:08.621Z,34.37
2022-09-06T07:57:12.220Z,34.59
2022-09-06T07:58:14.059Z,34.52
2022-09-06T07:59:15.823Z,34.85
2022-09-06T08:00:18.718Z,34.93
2022-09-06T08:01:34.511Z,34.92
2022-09-06T08:02:36.226Z,34.61
2022-09-06T08:03:37.932Z,34.46
2022-09-06T08:04:41.305Z,34.39
2022-09-06T08:09:48.220Z,35.12
2022-09-06T08:10:51.191Z,34.92
2022-09-06T08:11:53.131Z,34.80
2022-09-06T08:12:57.750Z,34.25
2022-09-06T08:14:01.282Z,33.39
2022-09-06T08:15:03.005Z,33.36
2022-09-06T08:16:10.606Z,33.28
2022-09-06T08:17:12.642Z,33.33
2022-09-06T08:18:14.422Z,32.93
2022-09-06T08:19:17.111Z,32.94
2022-09-06T08:20:18.895Z,33.29
2022-09-06T08:21:21.214Z,33.61
2022-09-06T08:22:22.915Z,33.79
2022-09-06T08:23:24.676Z,33.83
2022-09-06T08:24:26.615Z,33.73
2022-09-06T08:25:28.329Z,33.84
2022-09-06T08:26:32.207Z,33.78
2022-09-06T08:27:34.339Z,33.90
2022-09-06T08:28:36.647Z,33.93
2022-09-06T08:29:39.993Z,34.04
2022-09-06T08:30:41.748Z,33.98
2022-09-06T08:31:45.033Z,33.78
2022-09-06T08:32:46.919Z,33.22
2022-09-06T08:33:48.658Z,33.10
2022-09-06T08:34:50.852Z,33.33
2022-09-06T08:35:59.332Z,33.63
2022-09-06T08:37:01.103Z,33.23
2022-09-06T08:38:02.808Z,32.67
2022-09-06T08:39:11.855Z,32.70
2022-09-06T08:40:21.434Z,32.94
2022-09-06T08:41:27.669Z,33.28
2022-09-06T08:42:31.521Z,33.66
2022-09-06T08:43:33.486Z,34.02
2022-09-06T08:45:00.784Z,34.29
2022-09-06T08:46:03.465Z,34.60
2022-09-06T08:47:07.981Z,34.80
2022-09-06T08:48:09.819Z,34.89
2022-09-06T08:49:12.421Z,34.67
2022-09-06T08:50:14.167Z,34.33
2022-09-06T08:51:46.884Z,33.38
2022-09-06T08:53:19.117Z,32.59
2022-09-06T08:54:58.281Z,32.65
2022-09-06T08:56:13.626Z,32.11
2022-09-06T08:57:40.456Z,32.21
2022-09-06T08:59:06.771Z,32.34
2022-09-06T09:00:12.607Z,31.98
2022-09-06T09:01:27.709Z,31.42
2022-09-06T09:02:41.869Z,31.92
2022-09-06T09:03:44.938Z,32.46
2022-09-06T09:04:56.241Z,32.36
2022-09-06T09:06:00.256Z,32.18
2022-09-06T09:07:33.111Z,32.48
2022-09-06T09:09:04.107Z,31.61
2022-09-06T09:10:40.678Z,30.86
2022-09-06T09:11:50.018Z,30.67
2022-09-06T09:12:51.758Z,29.70
2022-09-06T09:13:56.075Z,30.02
2022-09-06T09:15:05.581Z,30.46
2022-09-06T09:16:07.908Z,30.56
2022-09-06T09:17:20.555Z,30.63
2022-09-06T09:18:30.192Z,30.91
2022-09-06T09:19:36.747Z,31.14
2022-09-06T09:20:39.316Z,31.52
2022-09-06T09:21:41.151Z,31.47
2022-09-06T09:22:43.829Z,31.52
2022-09-06T09:23:54.118Z,31.89
2022-09-06T09:24:59.426Z,32.25
2022-09-06T09:26:09.903Z,32.59
2022-09-06T09:27:14.008Z,32.84
2022-09-06T09:28:19.106Z,32.78
2022-09-06T09:29:25.324Z,32.56
2022-09-06T09:30:56.816Z,32.86
2022-09-06T09:31:58.659Z,33.19
2022-09-06T09:33:00.686Z,33.15
2022-09-06T09:34:04.918Z,33.19
2022-09-06T09:35:27.421Z,32.92
2022-09-06T09:36:29.155Z,33.15
2022-09-06T09:37:46.997Z,33.48
2022-09-06T09:38:51.847Z,33.63
2022-09-06T09:39:55.906Z,33.87
2022-09-06T09:41:05.866Z,34.01
2022-09-06T09:42:09.377Z,34.04
2022-09-06T09:43:15.967Z,34.19
2022-09-06T09:44:19.961Z,34.29
2022-09-06T09:45:31.330Z,34.40
2022-09-06T09:46:39.278Z,34.33
2022-09-06T09:47:41.037Z,34.35
2022-09-06T09:49:07.702Z,34.62
2022-09-06T09:50:25.012Z,34.62
2022-09-06T09:51:27.814Z,34.40
2022-09-06T09:52:32.083Z,34.47
2022-09-06T09:53:33.844Z,34.57
2022-09-06T09:54:39.234Z,34.73
2022-09-06T09:55:42.563Z,34.92
2022-09-06T09:56:49.513Z,35.11
2022-09-06T09:57:54.359Z,35.04
2022-09-06T09:58:58.350Z,34.94
2022-09-06T10:00:06.609Z,34.85
2022-09-06T10:01:30.801Z,35.07
2022-09-06T10:02:40.737Z,35.27
2022-09-06T10:05:10.111Z,35.03
2022-09-06T10:07:44.064Z,35.14
2022-09-06T10:08:45.827Z,34.81
2022-09-06T10:09:50.171Z,34.99
2022-09-06T10:10:52.100Z,35.35
2022-09-06T10:11:58.290Z,35.03
2022-09-06T10:13:14.757Z,35.03
2022-09-06T10:14:28.021Z,34.73
2022-09-06T10:15:34.290Z,35.00
2022-09-06T10:16:45.800Z,35.21
2022-09-06T10:17:48.836Z,35.33
2022-09-06T10:18:53.114Z,35.41
2022-09-06T10:19:54.959Z,35.48
2022-09-06T10:21:06.164Z,35.42
2022-09-06T10:22:20.250Z,35.25
2022-09-06T10:24:57.267Z,35.30
2022-09-06T10:26:31.404Z,35.27
2022-09-06T10:27:33.461Z,34.77
2022-09-06T10:28:39.200Z,34.40
2022-09-06T10:29:40.908Z,34.45
2022-09-06T10:31:16.164Z,34.64
2022-09-06T10:33:09.929Z,33.71
2022-09-06T10:34:35.712Z,33.69
2022-09-06T10:35:38.490Z,34.16
2022-09-06T10:36:48.349Z,33.92
2022-09-06T10:38:01.845Z,33.72
2022-09-06T10:39:40.907Z,33.66
2022-09-06T10:40:51.321Z,33.82
2022-09-06T10:42:08.574Z,34.17
2022-09-06T10:43:18.612Z,34.27
2022-09-06T10:44:28.973Z,34.57
2022-09-06T10:45:46.712Z,34.83
2022-09-06T10:46:55.604Z,34.61
2022-09-06T10:48:14.942Z,33.74
2022-09-06T10:49:20.004Z,33.35
2022-09-06T10:50:29.044Z,33.00
2022-09-06T10:51:50.201Z,32.76
2022-09-06T10:52:53.686Z,32.87
2022-09-06T10:54:01.902Z,32.87
2022-09-06T10:55:05.854Z,32.46
2022-09-06T10:56:17.059Z,32.70
2022-09-06T11:00:17.347Z,32.25
2022-09-06T11:01:42.049Z,31.87
2022-09-06T11:04:31.565Z,32.47
2022-09-06T11:05:44.930Z,32.71
2022-09-06T11:06:52.805Z,32.81
2022-09-06T11:09:26.086Z,33.00
2022-09-06T11:10:31.434Z,32.81
2022-09-06T11:11:40.495Z,32.65
2022-09-06T11:13:06.735Z,32.22
2022-09-06T11:14:13.613Z,31.92
2022-09-06T11:15:18.212Z,31.89
2022-09-06T11:16:39.679Z,32.12
2022-09-06T11:17:59.793Z,32.40
2022-09-06T11:19:07.895Z,32.83
2022-09-06T11:21:05.298Z,33.20
2022-09-06T11:22:19.209Z,33.33
2022-09-06T11:23:23.711Z,33.46
2022-09-06T11:24:37.360Z,33.52
2022-09-06T11:25:51.317Z,33.74
2022-09-06T11:27:13.108Z,33.91
2022-09-06T11:28:30.725Z,34.03
2022-09-06T11:29:34.921Z,34.11
2022-09-06T11:30:37.273Z,34.11
2022-09-06T11:33:30.460Z,33.42
2022-09-06T11:34:35.350Z,33.28
2022-09-06T11:35:37.946Z,32.97
2022-09-06T11:36:45.445Z,32.93
2022-09-06T11:37:51.188Z,32.74
2022-09-06T11:39:02.054Z,32.90
2022-09-06T11:41:40.951Z,32.86
2022-09-06T11:42:45.591Z,32.95
2022-09-06T11:43:51.866Z,33.14
2022-09-06T11:45:21.289Z,32.84
2022-09-06T11:46:44.443Z,31.85
2022-09-06T11:47:48.623Z,32.05
2022-09-06T11:49:03.536Z,32.05
2022-09-06T11:50:20.765Z,31.89
2022-09-06T11:51:35.351Z,31.80
2022-09-06T11:52:55.634Z,31.48
2022-09-06T11:53:57.922Z,31.38
2022-09-06T11:54:59.757Z,31.59
2022-09-06T11:56:01.498Z,31.46
2022-09-06T11:57:16.809Z,31.19
2022-09-06T11:58:18.532Z,31.14
2022-09-06T11:59:34.108Z,31.03
2022-09-06T12:00:36.005Z,30.27
2022-09-06T12:01:41.028Z,30.05
2022-09-06T12:02:45.134Z,30.07
2022-09-06T12:04:06.594Z,29.90
2022-09-06T12:05:16.797Z,29.72
2022-09-06T12:06:27.936Z,29.73
2022-09-06T12:07:32.111Z,29.68
2022-09-06T12:08:34.512Z,29.61
2022-09-06T12:09:46.425Z,29.57
2022-09-06T12:11:01.104Z,29.57
2022-09-06T12:12:03.894Z,29.75
2022-09-06T12:13:39.808Z,29.76
2022-09-06T12:14:46.236Z,29.92
2022-09-06T12:15:55.421Z,29.81
2022-09-06T12:17:07.253Z,29.83
2022-09-06T12:18:09.057Z,29.53
2022-09-06T12:19:44.516Z,29.18
2022-09-06T12:20:49.287Z,29.16
2022-09-06T12:21:52.527Z,29.25
2022-09-06T12:22:55.030Z,29.26
2022-09-06T12:23:56.850Z,29.35
2022-09-06T12:25:26.457Z,29.46
2022-09-06T12:26:55.903Z,29.69
2022-09-06T12:28:00.481Z,29.69
2022-09-06T12:29:10.824Z,29.57
2022-09-06T12:30:14.205Z,29.25
2022-09-06T12:31:25.183Z,29.19
2022-09-06T12:32:44.531Z,28.99
2022-09-06T12:33:48.210Z,28.67
2022-09-06T12:36:24.182Z,28.76
2022-09-06T12:37:37.281Z,28.65
2022-09-06T12:38:39.095Z,28.61
2022-09-06T12:39:58.414Z,28.61
2022-09-06T12:41:01.329Z,28.53
2022-09-06T12:42:06.765Z,28.36
2022-09-06T12:43:11.263Z,28.38
2022-09-06T12:44:15.916Z,28.32
2022-09-06T12:45:26.663Z,28.21
2022-09-06T12:46:31.100Z,27.92
2022-09-06T12:47:35.864Z,28.02
2022-09-06T12:48:41.511Z,28.01
2022-09-06T12:49:43.283Z,28.13
2022-09-06T12:50:45.053Z,28.26
2022-09-06T12:51:47.630Z,28.35
2022-09-06T12:52:56.907Z,28.32
2022-09-06T12:54:22.075Z,28.28
2022-09-06T12:55:33.891Z,28.16
2022-09-06T12:56:35.701Z,28.07
2022-09-06T12:57:37.449Z,28.10
2022-09-06T12:58:39.753Z,28.16
2022-09-06T13:00:07.679Z,28.02
2022-09-06T13:01:23.234Z,28.07
2022-09-06T13:02:31.856Z,28.23
2022-09-06T13:04:05.228Z,28.30
2022-09-06T13:05:12.009Z,28.28
2022-09-06T13:06:26.628Z,28.25
2022-09-06T13:07:29.465Z,28.05
2022-09-06T13:08:35.143Z,27.91
2022-09-06T13:09:39.761Z,27.75
2022-09-06T13:10:45.248Z,27.66
2022-09-06T13:11:51.639Z,27.60
2022-09-06T13:12:56.432Z,27.61
2022-09-06T13:13:58.983Z,27.67
2022-09-06T13:15:14.713Z,27.85
2022-09-06T13:16:23.001Z,28.07
2022-09-06T13:17:27.267Z,28.11
2022-09-06T13:18:38.095Z,28.21
2022-09-06T13:19:42.168Z,28.15
2022-09-06T13:20:43.989Z,28.07
2022-09-06T13:21:47.133Z,28.07
2022-09-06T13:22:51.030Z,27.79
2022-09-06T13:23:53.188Z,27.74
2022-09-06T13:24:56.642Z,27.88
2022-09-06T13:25:58.545Z,27.86
2022-09-06T13:27:00.295Z,27.91
2022-09-06T13:28:03.452Z,27.91
2022-09-06T13:29:22.174Z,27.88
2022-09-06T13:30:49.643Z,27.84
2022-09-06T13:31:57.105Z,27.64
2022-09-06T13:32:59.472Z,27.77
2022-09-06T13:34:01.258Z,27.98
2022-09-06T13:35:04.045Z,28.05
2022-09-06T13:36:11.930Z,28.15
2022-09-06T13:37:14.239Z,28.23
2022-09-06T13:38:31.244Z,28.18
2022-09-06T13:39:41.993Z,28.24
2022-09-06T13:41:09.650Z,28.27
2022-09-06T13:42:07.633Z,28.30
2022-09-06T13:43:12.420Z,28.43
2022-09-06T13:44:20.713Z,28.44
2022-09-06T13:45:28.574Z,28.43
2022-09-06T13:46:34.415Z,28.52
2022-09-06T13:47:36.178Z,28.63
2022-09-06T13:48:39.708Z,28.52
2022-09-06T13:49:41.641Z,28.62
2022-09-06T13:50:43.421Z,28.51
2022-09-06T13:51:45.177Z,28.65
2022-09-06T13:52:46.912Z,28.70
2022-09-06T13:53:49.123Z,28.85
2022-09-06T13:54:50.899Z,28.92
2022-09-06T13:55:53.051Z,28.88
2022-09-06T13:56:55.606Z,28.80
2022-09-06T13:57:57.319Z,28.92
2022-09-06T13:58:59.130Z,28.87
2022-09-06T14:00:00.983Z,28.78
2022-09-06T14:01:04.262Z,28.52
2022-09-06T14:02:10.051Z,28.75
2022-09-06T14:03:22.694Z,28.66
2022-09-06T14:04:25.619Z,28.79
2022-09-06T14:05:27.309Z,28.86
2022-09-06T14:06:30.674Z,28.98
2022-09-06T14:07:35.459Z,29.06
2022-09-06T14:08:56.240Z,29.03
2022-09-06T14:10:01.277Z,28.86
2022-09-06T14:11:03.023Z,28.78
2022-09-06T14:12:06.801Z,28.83
2022-09-06T14:13:08.736Z,28.76
2022-09-06T14:14:11.054Z,28.80
2022-09-06T14:15:13.492Z,28.86
2022-09-06T14:16:15.510Z,28.76
2022-09-06T14:17:17.905Z,28.76
2022-09-06T14:18:19.643Z,28.79
2022-09-06T14:19:21.421Z,28.73
2022-09-06T14:20:23.166Z,28.79
2022-09-06T14:21:24.971Z,28.88
2022-09-06T14:22:26.746Z,28.76
2022-09-06T14:23:28.658Z,28.66
2022-09-06T14:24:30.606Z,28.71
2022-09-06T14:25:35.827Z,28.46
2022-09-06T14:26:39.044Z,28.42
2022-09-06T14:27:40.883Z,28.39
2022-09-06T14:28:42.717Z,28.41
2022-09-06T14:29:44.471Z,28.38
2022-09-06T14:30:46.394Z,28.39
2022-09-06T14:31:49.125Z,28.45
2022-09-06T14:32:51.085Z,28.45
2022-09-06T14:33:54.430Z,28.42
2022-09-06T14:34:56.173Z,28.44
2022-09-06T14:35:57.890Z,28.39
2022-09-06T14:36:59.698Z,28.33
2022-09-06T14:38:01.612Z,28.33
2022-09-06T14:39:03.987Z,28.18
2022-09-06T14:40:06.509Z,28.20
2022-09-06T14:41:09.506Z,28.29
2022-09-06T14:42:11.551Z,28.34
2022-09-06T14:43:13.407Z,28.26
2022-09-06T14:44:15.208Z,28.22
2022-09-06T14:45:17.191Z,28.24
2022-09-06T14:46:20.672Z,28.16
2022-09-06T14:47:22.453Z,28.26